createdAt,value
2022-09-20T00:00:45.647Z,33.33
2022-09-20T00:03:19.091Z,22.75
2022-09-20T00:05:51.530Z,27.80
2022-09-20T00:08:24.139Z,29.35
2022-09-20T00:11:19.122Z,26.15
2022-09-20T00:13:55.009Z,23.98
2022-09-20T00:16:33.851Z,23.10
2022-09-20T00:19:09.459Z,21.60
2022-09-20T00:21:42.807Z,24.30
2022-09-20T00:24:15.543Z,32.10
2022-09-20T00:26:47.996Z,22.95
2022-09-20T00:29:20.453Z,26.08
2022-09-20T00:31:52.937Z,18.98
2022-09-20T00:34:43.906Z,16.10
2022-09-20T00:37:16.524Z,20.75
2022-09-20T00:39:48.976Z,14.93
2022-09-20T00:42:21.359Z,16.08
2022-09-20T00:45:01.408Z,17.35
2022-09-20T00:48:03.705Z,24.00
2022-09-20T00:50:39.648Z,10.07
2022-09-20T00:53:16.355Z,10.40
2022-09-20T00:55:58.742Z,10.50
2022-09-20T00:58:35.103Z,10.32
2022-09-20T01:01:08.790Z,10.73
2022-09-20T01:03:43.617Z,9.35
2022-09-20T01:06:18.905Z,9.82
2022-09-20T01:08:56.547Z,10.43
2022-09-20T01:11:30.486Z,10.38
2022-09-20T01:14:03.379Z,10.07
2022-09-20T01:16:36.655Z,9.73
2022-09-20T01:19:37.331Z,11.50
2022-09-20T01:22:23.240Z,13.32
2022-09-20T01:25:27.334Z,9.35
2022-09-20T01:28:00.393Z,9.13
2022-09-20T01:30:49.117Z,11.23
2022-09-20T01:33:39.488Z,9.10
2022-09-20T01:36:15.791Z,9.88
2022-09-20T01:38:59.464Z,9.95
2022-09-20T01:41:37.994Z,9.07
2022-09-20T01:44:29.964Z,8.48
2022-09-20T01:47:13.308Z,7.97
2022-09-20T01:50:09.108Z,8.18
2022-09-20T01:53:02.186Z,10.13
2022-09-20T01:56:07.764Z,7.63
2022-09-20T01:59:24.726Z,8.57
2022-09-20T02:02:09.283Z,10.00
2022-09-20T02:05:37.933Z,7.78
2022-09-20T02:08:31.334Z,8.50
2022-09-20T02:11:18.354Z,11.40
2022-09-20T02:14:03.462Z,7.70
2022-09-20T02:17:20.277Z,7.57
2022-09-20T02:20:02.216Z,10.75
2022-09-20T02:22:53.230Z,8.10
2022-09-20T02:25:44.109Z,8.02
2022-09-20T02:28:37.013Z,7.30
2022-09-20T02:31:42.126Z,7.20
2022-09-20T02:34:41.275Z,8.25
2022-09-20T02:37:35.054Z,8.77
2022-09-20T02:40:33.154Z,6.57
2022-09-20T02:43:30.545Z,9.50
2022-09-20T02:46:03.202Z,5.85
2022-09-20T02:49:04.790Z,5.90
2022-09-20T02:51:58.047Z,5.95
2022-09-20T02:54:39.125Z,5.78
2022-09-20T02:58:02.650Z,7.43
2022-09-20T03:00:49.229Z,5.82
2022-09-20T03:03:35.686Z,6.80
2022-09-20T03:06:23.407Z,6.25
2022-09-20T03:09:33.406Z,5.93
2022-09-20T03:12:45.262Z,6.22
2022-09-20T03:15:49.348Z,5.40
2022-09-20T03:18:43.684Z,5.97
2022-09-20T03:22:36.473Z,6.78
2022-09-20T03:25:55.852Z,5.50
2022-09-20T03:29:10.099Z,6.18
2022-09-20T03:32:44.537Z,5.38
2022-09-20T03:36:00.470Z,5.30
2022-09-20T03:39:24.709Z,5.47
2022-09-20T03:42:23.269Z,7.63
2022-09-20T03:45:39.866Z,5.47
2022-09-20T03:48:24.846Z,4.30
2022-09-20T03:51:17.946Z,5.30
2022-09-20T03:53:53.448Z,5.53
2022-09-20T03:56:37.713Z,6.13
2022-09-20T03:59:31.053Z,4.93
2022-09-20T04:02:36.601Z,5.47
2022-09-20T04:05:16.093Z,5.53
2022-09-20T04:07:51.761Z,4.40
2022-09-20T04:10:50.983Z,4.85
2022-09-20T04:13:36.219Z,5.68
2022-09-20T04:16:43.292Z,4.90
2022-09-20T04:19:43.206Z,4.75
2022-09-20T04:22:16.382Z,4.55
2022-09-20T04:25:29.252Z,5.65
2022-09-20T04:28:30.624Z,5.57
2022-09-20T04:31:14.563Z,5.93
2022-09-20T04:33:52.058Z,5.22
2022-09-20T04:37:00.336Z,4.50
2022-09-20T04:40:18.028Z,4.70
2022-09-20T04:43:11.613Z,4.30
2022-09-20T04:46:38.766Z,4.95
2022-09-20T04:49:16.978Z,4.60
2022-09-20T04:52:26.044Z,4.78
2022-09-20T04:55:11.825Z,4.40
2022-09-20T04:58:28.622Z,5.20
2022-09-20T05:01:44.027Z,6.40
2022-09-20T05:04:46.878Z,4.45
2022-09-20T05:07:52.970Z,4.40
2022-09-20T05:10:54.360Z,4.25
2022-09-20T05:14:04.583Z,3.78
2022-09-20T05:17:16.361Z,4.00
2022-09-20T05:20:18.510Z,3.57
2022-09-20T05:23:00.509Z,5.22
2022-09-20T05:26:08.675Z,4.07
2022-09-20T05:29:11.659Z,4.00
2022-09-20T05:32:03.725Z,3.88
2022-09-20T05:34:40.695Z,4.25
2022-09-20T05:37:28.694Z,5.50
2022-09-20T05:40:25.144Z,3.40
2022-09-20T05:43:12.888Z,3.40
2022-09-20T05:46:13.157Z,3.55
2022-09-20T05:49:01.125Z,3.53
2022-09-20T05:51:54.896Z,4.43
2022-09-20T05:54:38.971Z,3.90
2022-09-20T05:57:39.184Z,4.13
2022-09-20T06:00:22.377Z,3.75
2022-09-20T06:03:06.857Z,3.83
2022-09-20T06:06:09.057Z,5.35
2022-09-20T06:08:53.057Z,3.45
2022-09-20T06:11:45.488Z,2.95
2022-09-20T06:14:40.321Z,3.50
2022-09-20T06:17:21.301Z,2.85
2022-09-20T06:20:21.812Z,3.13
2022-09-20T06:23:00.762Z,2.95
2022-09-20T06:25:33.183Z,3.13
2022-09-20T06:28:15.002Z,3.05
2022-09-20T06:30:53.754Z,3.07
2022-09-20T06:33:30.537Z,2.65
2022-09-20T06:36:42.672Z,2.95
2022-09-20T06:40:10.287Z,5.03
2022-09-20T06:42:43.755Z,2.97
2022-09-20T06:45:16.417Z,2.72
2022-09-20T06:47:48.839Z,2.63
2022-09-20T06:50:21.361Z,5.35
2022-09-20T06:52:55.142Z,3.03
2022-09-20T06:55:34.142Z,3.45
2022-09-20T06:58:06.556Z,2.38
2022-09-20T07:00:41.255Z,2.80
2022-09-20T07:03:14.608Z,3.75
2022-09-20T07:05:47.980Z,2.72
2022-09-20T07:08:20.491Z,3.92
2022-09-20T07:10:53.112Z,3.53
2022-09-20T07:13:25.829Z,3.20
2022-09-20T07:16:07.218Z,3.00
2022-09-20T07:18:39.740Z,6.28
2022-09-20T07:21:17.540Z,5.03
2022-09-20T07:23:55.602Z,4.53
2022-09-20T07:26:30.683Z,4.15
2022-09-20T07:29:03.860Z,9.25
2022-09-20T07:31:37.122Z,5.68
2022-09-20T07:34:09.917Z,8.52
2022-09-20T07:36:42.271Z,4.40
2022-09-20T07:39:15.039Z,6.25
2022-09-20T07:41:50.064Z,11.63
2022-09-20T07:44:25.829Z,21.75
2022-09-20T07:47:03.355Z,9.05
2022-09-20T07:49:35.756Z,11.52
2022-09-20T07:52:09.282Z,8.38
2022-09-20T07:54:41.769Z,11.95
2022-09-20T07:57:14.931Z,11.80
2022-09-20T07:59:47.301Z,10.45
2022-09-20T08:02:20.122Z,6.97
2022-09-20T08:04:53.530Z,12.98
2022-09-20T08:07:26.262Z,5.68
2022-09-20T08:09:58.798Z,8.25
2022-09-20T08:15:26.145Z,4.85
2022-09-20T08:17:58.825Z,9.32
2022-09-20T08:20:31.198Z,5.10
2022-09-20T08:23:22.510Z,5.00
2022-09-20T08:25:59.722Z,11.13
2022-09-20T08:28:33.096Z,12.48
2022-09-20T08:31:07.506Z,11.10
2022-09-20T08:33:40.153Z,5.53
2022-09-20T08:36:16.556Z,5.25
2022-09-20T08:41:58.176Z,9.27
2022-09-20T08:44:38.539Z,10.60
2022-09-20T08:47:27.634Z,7.45
2022-09-20T08:50:09.047Z,4.45
2022-09-20T08:52:43.953Z,14.43
2022-09-20T08:55:37.240Z,5.32
2022-09-20T08:58:15.737Z,8.52
2022-09-20T09:00:49.315Z,5.10
2022-09-20T09:03:22.080Z,5.68
2022-09-20T09:05:59.746Z,11.25
2022-09-20T09:08:40.386Z,6.72
2022-09-20T09:11:19.044Z,6.53
2022-09-20T09:14:28.218Z,8.57
2022-09-20T09:17:02.417Z,6.38
2022-09-20T09:19:50.851Z,11.02
2022-09-20T09:22:44.736Z,6.57
2022-09-20T09:25:19.943Z,6.40
2022-09-20T09:28:07.595Z,3.83
2022-09-20T09:30:45.178Z,7.45
2022-09-20T09:33:32.152Z,5.70
2022-09-20T09:36:19.221Z,4.30
2022-09-20T09:38:52.189Z,9.52
2022-09-20T09:41:31.439Z,4.88
2022-09-20T09:44:29.219Z,3.80
2022-09-20T09:47:02.366Z,4.13
2022-09-20T09:49:41.355Z,3.65
2022-09-20T09:52:15.872Z,9.88
2022-09-20T09:55:06.698Z,3.40
2022-09-20T09:57:44.799Z,3.33
2022-09-20T10:00:25.594Z,3.65
2022-09-20T10:03:32.634Z,4.47
2022-09-20T10:06:37.575Z,3.97
2022-09-20T10:09:31.114Z,4.15
2022-09-20T10:12:15.459Z,4.40
2022-09-20T10:15:24.664Z,7.47
2022-09-20T10:18:23.693Z,5.45
2022-09-20T10:21:16.374Z,6.18
2022-09-20T10:27:09.847Z,4.50
2022-09-20T10:30:03.343Z,6.00
2022-09-20T10:33:03.174Z,7.13
2022-09-20T10:36:06.660Z,5.72
2022-09-20T10:39:20.088Z,5.57
2022-09-20T10:42:10.774Z,9.18
2022-09-20T10:44:43.213Z,7.15
2022-09-20T10:47:24.323Z,7.80
2022-09-20T10:50:06.605Z,7.93
2022-09-20T10:52:48.392Z,11.05
2022-09-20T10:55:41.925Z,8.68
2022-09-20T10:58:26.229Z,14.10
2022-09-20T11:01:25.301Z,11.80
2022-09-20T11:04:09.820Z,8.18
2022-09-20T11:06:59.930Z,11.18
2022-09-20T11:09:39.852Z,8.88
2022-09-20T11:12:27.617Z,12.18
2022-09-20T11:15:26.851Z,9.07
2022-09-20T11:18:06.271Z,10.45
2022-09-20T11:20:55.920Z,10.57
2022-09-20T11:23:43.897Z,13.95
2022-09-20T11:26:29.243Z,13.15
2022-09-20T11:29:22.523Z,11.15
2022-09-20T11:32:00.691Z,10.80
2022-09-20T11:34:42.002Z,10.60
2022-09-20T11:37:15.126Z,10.07
2022-09-20T11:39:57.290Z,10.43
2022-09-20T11:42:35.726Z,14.95
2022-09-20T11:45:08.853Z,14.93
2022-09-20T11:47:57.237Z,12.63
2022-09-20T11:50:58.669Z,12.60
2022-09-20T11:53:49.200Z,16.33
2022-09-20T11:56:27.445Z,21.30
2022-09-20T11:59:05.752Z,17.85
2022-09-20T12:01:41.249Z,10.02
2022-09-20T12:04:33.431Z,12.45
2022-09-20T12:07:12.495Z,16.45
2022-09-20T12:09:57.698Z,15.70
2022-09-20T12:15:32.030Z,12.25
2022-09-20T12:18:29.444Z,15.38
2022-09-20T12:21:07.422Z,17.98
2022-09-20T12:23:43.871Z,14.27
2022-09-20T12:26:24.913Z,16.27
2022-09-20T12:29:00.277Z,11.15
2022-09-20T12:31:35.751Z,11.98
2022-09-20T12:34:14.751Z,13.55
2022-09-20T12:36:57.581Z,11.95
2022-09-20T12:39:31.920Z,11.65
2022-09-20T12:42:16.892Z,10.98
2022-09-20T12:44:52.563Z,12.75
2022-09-20T12:47:32.640Z,15.02
2022-09-20T12:50:43.051Z,8.60
2022-09-20T12:53:18.492Z,8.07
2022-09-20T12:56:23.240Z,10.95
2022-09-20T12:58:58.005Z,7.00
2022-09-20T13:01:33.526Z,9.35
2022-09-20T13:04:43.535Z,8.70
2022-09-20T13:07:38.930Z,6.53
2022-09-20T13:10:27.824Z,5.95
2022-09-20T13:13:05.997Z,10.98
2022-09-20T13:15:40.304Z,5.95
2022-09-20T13:18:18.055Z,5.43
2022-09-20T13:20:51.099Z,7.40
2022-09-20T13:23:33.883Z,14.65
2022-09-20T13:26:11.612Z,4.40
2022-09-20T13:28:53.999Z,5.68
2022-09-20T13:31:27.681Z,5.82
2022-09-20T13:34:27.579Z,4.07
2022-09-20T13:37:05.405Z,7.97
2022-09-20T13:39:39.780Z,3.85
2022-09-20T13:42:23.508Z,3.72
2022-09-20T13:44:56.307Z,3.47
2022-09-20T13:47:34.082Z,5.18
2022-09-20T13:50:29.189Z,4.00
2022-09-20T13:53:05.023Z,4.03
2022-09-20T13:55:41.426Z,8.95
2022-09-20T13:58:33.252Z,6.57
2022-09-20T14:01:23.236Z,10.40
2022-09-20T14:04:06.841Z,4.80
2022-09-20T14:06:46.323Z,6.85
2022-09-20T14:09:43.848Z,18.17
2022-09-20T14:12:20.916Z,3.83
2022-09-20T14:14:56.393Z,13.27
2022-09-20T14:17:35.741Z,4.18
2022-09-20T14:20:29.755Z,3.55
2022-09-20T14:26:45.097Z,10.10
2022-09-20T14:30:17.605Z,8.30
2022-09-20T14:33:02.541Z,6.13
2022-09-20T14:36:07.635Z,5.30
2022-09-20T14:39:06.082Z,3.95
2022-09-20T14:42:33.873Z,5.05
2022-09-20T14:48:57.853Z,4.60
2022-09-20T14:51:44.377Z,3.80
2022-09-20T15:00:32.850Z,5.13
2022-09-20T15:04:11.753Z,4.65
2022-09-20T15:10:30.020Z,4.85
2022-09-20T15:13:39.892Z,5.57
2022-09-20T15:17:07.841Z,6.03
2022-09-20T15:20:09.437Z,5.15
2022-09-20T15:22:54.329Z,4.45
2022-09-20T15:29:24.343Z,8.32
2022-09-20T15:35:27.734Z,5.15
2022-09-20T15:41:31.530Z,7.68
2022-09-20T15:44:13.293Z,5.63
2022-09-20T15:47:04.457Z,7.43
2022-09-20T15:49:53.335Z,8.77
2022-09-20T15:55:56.242Z,4.70
2022-09-20T15:58:45.911Z,5.20
2022-09-20T16:01:28.503Z,7.82
2022-09-20T16:04:21.274Z,5.90
2022-09-20T16:07:04.436Z,5.20
2022-09-20T16:09:55.071Z,4.68
2022-09-20T16:12:46.317Z,5.25
2022-09-20T16:15:35.317Z,8.98
2022-09-20T16:18:39.372Z,5.07
2022-09-20T16:21:25.248Z,4.40
2022-09-20T16:24:11.249Z,4.40
2022-09-20T16:27:09.738Z,7.70
2022-09-20T16:30:02.786Z,13.85
2022-09-20T16:32:43.253Z,6.43
2022-09-20T16:35:27.118Z,9.02
2022-09-20T16:38:08.413Z,9.35
2022-09-20T16:40:53.695Z,6.88
2022-09-20T16:43:36.615Z,9.65
2022-09-20T16:46:12.223Z,4.43
2022-09-20T16:48:50.358Z,5.00
2022-09-20T16:51:30.891Z,7.30
2022-09-20T16:54:18.900Z,4.15
2022-09-20T16:57:03.658Z,6.45
2022-09-20T16:59:37.108Z,9.95
2022-09-20T17:02:15.952Z,5.47
2022-09-20T17:04:52.871Z,3.78
2022-09-20T17:07:34.408Z,4.15
2022-09-20T17:10:18.696Z,10.57
2022-09-20T17:13:00.284Z,4.40
2022-09-20T17:15:37.214Z,4.70
2022-09-20T17:18:15.474Z,5.78
2022-09-20T17:20:54.622Z,4.38
2022-09-20T17:23:28.358Z,4.70
2022-09-20T17:26:07.824Z,8.38
2022-09-20T17:28:53.088Z,3.92
2022-09-20T17:31:33.964Z,3.95
2022-09-20T17:34:09.337Z,3.85
2022-09-20T17:36:44.984Z,4.10
2022-09-20T17:39:18.491Z,3.80
2022-09-20T17:41:52.359Z,5.28
2022-09-20T17:44:25.557Z,6.57
2022-09-20T17:46:58.303Z,3.88
2022-09-20T17:49:31.674Z,8.45
2022-09-20T17:52:04.318Z,4.72
2022-09-20T17:54:36.780Z,3.65
2022-09-20T17:57:09.307Z,5.85
2022-09-20T17:59:41.692Z,3.45
2022-09-20T18:02:14.116Z,3.40
2022-09-20T18:04:46.859Z,3.60
2022-09-20T18:07:19.298Z,6.65
2022-09-20T18:09:52.153Z,4.80
2022-09-20T18:12:24.643Z,5.50
2022-09-20T18:14:58.464Z,3.45
2022-09-20T18:17:30.896Z,3.53
2022-09-20T18:20:04.316Z,3.63
2022-09-20T18:22:36.986Z,3.70
2022-09-20T18:25:09.681Z,3.05
2022-09-20T18:27:42.609Z,2.90
2022-09-20T18:30:15.352Z,3.83
2022-09-20T18:32:52.439Z,3.63
2022-09-20T18:35:24.845Z,4.63
2022-09-20T18:37:57.217Z,3.00
2022-09-20T18:40:31.265Z,5.70
2022-09-20T18:43:04.769Z,3.17
2022-09-20T18:45:37.399Z,4.93
2022-09-20T18:48:10.372Z,2.80
2022-09-20T18:50:42.787Z,2.85
2022-09-20T18:53:15.252Z,3.85
2022-09-20T18:55:48.074Z,3.00
2022-09-20T18:58:25.101Z,2.78
2022-09-20T19:01:15.628Z,2.78
2022-09-20T19:04:12.839Z,5.38
2022-09-20T19:07:00.392Z,5.00
2022-09-20T19:09:47.814Z,2.70
2022-09-20T19:12:36.253Z,5.35
2022-09-20T19:15:17.124Z,3.15
2022-09-20T19:18:26.358Z,3.72
2022-09-20T19:21:19.979Z,3.13
2022-09-20T19:24:18.083Z,3.47
2022-09-20T19:26:51.226Z,3.03
2022-09-20T19:29:27.242Z,3.83
2022-09-20T19:32:02.379Z,3.42
2022-09-20T19:34:35.483Z,3.17
2022-09-20T19:37:29.353Z,3.65
2022-09-20T19:40:22.675Z,3.03
2022-09-20T19:43:25.245Z,3.97
2022-09-20T19:46:28.426Z,3.17
2022-09-20T19:49:17.239Z,2.63
2022-09-20T19:51:49.902Z,3.10
2022-09-20T19:54:22.808Z,3.05
2022-09-20T19:57:00.836Z,8.40
2022-09-20T19:59:34.147Z,2.90
2022-09-20T20:02:07.156Z,2.97
2022-09-20T20:04:40.510Z,2.70
2022-09-20T20:07:18.333Z,3.33
2022-09-20T20:09:56.417Z,3.10
2022-09-20T20:12:34.863Z,3.13
2022-09-20T20:15:47.528Z,7.03
2022-09-20T20:18:35.851Z,2.75
2022-09-20T20:21:26.192Z,5.20
2022-09-20T20:24:21.528Z,3.22
2022-09-20T20:26:53.987Z,4.13
2022-09-20T20:29:26.424Z,6.60
2022-09-20T20:31:58.897Z,3.00
2022-09-20T20:34:31.725Z,3.10
2022-09-20T20:37:04.412Z,2.90
2022-09-20T20:39:37.115Z,2.58
2022-09-20T20:42:14.261Z,3.22
2022-09-20T20:44:46.994Z,2.75
2022-09-20T20:47:19.367Z,4.05
2022-09-20T20:49:54.964Z,4.68
2022-09-20T20:52:27.573Z,4.10
2022-09-20T20:55:01.675Z,2.75
2022-09-20T20:57:35.248Z,2.97
2022-09-20T21:00:08.759Z,3.17
2022-09-20T21:02:41.150Z,4.13
2022-09-20T21:05:16.945Z,3.38
2022-09-20T21:07:53.892Z,3.20
2022-09-20T21:10:26.403Z,3.72
2022-09-20T21:12:59.079Z,3.35
2022-09-20T21:15:31.601Z,5.28
2022-09-20T21:18:04.189Z,3.33
2022-09-20T21:20:37.324Z,3.60
2022-09-20T21:23:10.695Z,3.55
2022-09-20T21:25:43.575Z,3.60
2022-09-20T21:28:16.177Z,4.55
2022-09-20T21:30:48.624Z,3.38
2022-09-20T21:33:21.092Z,6.15
2022-09-20T21:35:54.067Z,3.08
2022-09-20T21:38:26.414Z,3.47
2022-09-20T21:41:10.272Z,5.70
2022-09-20T21:43:48.005Z,3.35
2022-09-20T21:46:23.033Z,3.20
2022-09-20T21:48:55.851Z,5.43
2022-09-20T21:51:32.694Z,5.22
2022-09-20T21:54:07.729Z,4.20
2022-09-20T21:56:42.770Z,8.77
2022-09-20T21:59:15.345Z,5.03
2022-09-20T22:01:48.019Z,6.00
2022-09-20T22:04:20.510Z,3.60
2022-09-20T22:06:54.285Z,3.08
2022-09-20T22:09:26.680Z,3.40
2022-09-20T22:11:59.253Z,4.88
2022-09-20T22:14:31.708Z,3.20
2022-09-20T22:17:04.104Z,4.22
2022-09-20T22:19:37.002Z,5.93
2022-09-20T22:22:10.460Z,3.13
2022-09-20T22:24:42.978Z,6.50
2022-09-20T22:27:15.351Z,3.25
2022-09-20T22:29:47.758Z,3.88
2022-09-20T22:32:20.154Z,3.40
2022-09-20T22:34:52.693Z,9.10
2022-09-20T22:37:25.122Z,6.93
2022-09-20T22:39:57.738Z,3.38
2022-09-20T22:42:30.267Z,4.72
2022-09-20T22:45:02.654Z,3.17
2022-09-20T22:47:35.422Z,3.20
2022-09-20T22:50:08.790Z,3.35
2022-09-20T22:52:41.329Z,3.28
2022-09-20T22:55:14.053Z,3.22
2022-09-20T22:57:46.538Z,11.63
2022-09-20T23:00:19.453Z,3.60
2022-09-20T23:02:52.391Z,3.47
2022-09-20T23:05:25.141Z,3.15
2022-09-20T23:07:57.788Z,3.42
2022-09-20T23:10:30.478Z,2.58
2022-09-20T23:13:03.989Z,2.50
2022-09-20T23:15:36.812Z,2.80
2022-09-20T23:18:09.255Z,3.15
2022-09-20T23:20:41.669Z,2.83
2022-09-20T23:23:14.120Z,2.80
2022-09-20T23:25:46.559Z,6.45
2022-09-20T23:28:22.227Z,18.20
2022-09-20T23:30:54.988Z,18.05
2022-09-20T23:33:27.412Z,14.30
2022-09-20T23:35:59.936Z,14.43
2022-09-20T23:38:32.267Z,8.85
2022-09-20T23:41:10.111Z,15.75
2022-09-20T23:43:43.794Z,10.30
2022-09-20T23:46:18.715Z,9.85
2022-09-20T23:48:54.501Z,28.48
2022-09-20T23:51:28.007Z,26.20
2022-09-20T23:54:00.865Z,28.77
2022-09-20T23:56:34.483Z,20.08
2022-09-20T23:59:06.902Z,14.93
